createdAt,value
2023-03-21T00:01:45.842Z,60.25
2023-03-21T00:04:13.094Z,56.40
2023-03-21T00:07:00.811Z,56.30
2023-03-21T00:09:41.518Z,54.25
2023-03-21T00:12:10.005Z,59.17
2023-03-21T00:14:38.034Z,57.92
2023-03-21T00:17:05.584Z,61.58
2023-03-21T00:19:32.651Z,61.72
2023-03-21T00:22:07.610Z,61.05
2023-03-21T00:24:36.577Z,58.05
2023-03-21T00:27:29.841Z,57.28
2023-03-21T00:29:50.779Z,57.10
2023-03-21T00:32:19.790Z,59.88
2023-03-21T00:35:00.347Z,64.97
2023-03-21T00:37:37.266Z,69.57
2023-03-21T00:40:26.560Z,54.13
2023-03-21T00:43:16.853Z,54.22
2023-03-21T00:45:58.827Z,57.22
2023-03-21T00:48:27.433Z,54.67
2023-03-21T00:51:14.815Z,56.53
2023-03-21T00:54:08.843Z,61.95
2023-03-21T00:56:49.590Z,59.00
2023-03-21T00:59:17.387Z,62.88
2023-03-21T01:01:46.843Z,69.78
2023-03-21T01:04:17.133Z,65.70
2023-03-21T01:06:56.844Z,61.15
2023-03-21T01:09:38.973Z,56.38
2023-03-21T01:12:06.118Z,56.47
2023-03-21T01:14:33.072Z,55.03
2023-03-21T01:17:00.148Z,50.83
2023-03-21T01:19:40.980Z,52.95
2023-03-21T01:22:12.429Z,51.38
2023-03-21T01:24:50.383Z,48.65
2023-03-21T01:27:20.442Z,48.92
2023-03-21T01:29:49.017Z,50.80
2023-03-21T01:32:35.878Z,52.53
2023-03-21T01:35:49.244Z,53.13
2023-03-21T01:38:56.856Z,49.10
2023-03-21T01:41:44.120Z,47.80
2023-03-21T01:44:29.502Z,53.15
2023-03-21T01:47:11.068Z,54.08
2023-03-21T01:50:01.589Z,48.00
2023-03-21T01:53:04.834Z,49.92
2023-03-21T01:55:47.864Z,49.67
2023-03-21T01:58:45.727Z,50.05
2023-03-21T02:01:45.703Z,57.50
2023-03-21T02:04:13.639Z,55.03
2023-03-21T02:07:14.191Z,51.22
2023-03-21T02:10:22.905Z,53.63
2023-03-21T02:13:09.935Z,58.45
2023-03-21T02:15:54.064Z,54.47
2023-03-21T02:18:40.526Z,58.40
2023-03-21T02:21:36.635Z,55.55
2023-03-21T02:24:27.577Z,55.33
2023-03-21T02:27:25.907Z,53.83
2023-03-21T02:30:31.849Z,47.83
2023-03-21T02:33:15.545Z,52.97
2023-03-21T02:36:17.660Z,52.33
2023-03-21T02:39:26.539Z,51.03
2023-03-21T02:42:07.547Z,50.67
2023-03-21T02:44:44.161Z,54.55
2023-03-21T02:47:25.979Z,52.03
2023-03-21T02:50:03.869Z,51.80
2023-03-21T02:53:07.877Z,44.85
2023-03-21T02:55:46.973Z,50.25
2023-03-21T02:58:20.457Z,52.67
2023-03-21T03:00:55.523Z,50.33
2023-03-21T03:03:39.018Z,51.00
2023-03-21T03:07:01.201Z,53.30
2023-03-21T03:10:00.372Z,45.55
2023-03-21T03:12:59.779Z,49.60
2023-03-21T03:15:45.870Z,52.65
2023-03-21T03:18:41.913Z,53.33
2023-03-21T03:21:42.892Z,48.67
2023-03-21T03:24:24.482Z,38.20
2023-03-21T03:27:03.665Z,37.50
2023-03-21T03:29:34.810Z,38.05
2023-03-21T03:32:18.043Z,34.60
2023-03-21T03:34:51.046Z,35.45
2023-03-21T03:37:26.395Z,35.13
2023-03-21T03:40:22.403Z,33.03
2023-03-21T03:43:06.557Z,41.92
2023-03-21T03:45:47.479Z,40.13
2023-03-21T03:48:33.963Z,40.90
2023-03-21T03:51:20.083Z,46.22
2023-03-21T03:54:21.323Z,48.65
2023-03-21T03:56:49.972Z,49.55
2023-03-21T03:59:22.170Z,51.50
2023-03-21T04:02:29.977Z,53.22
2023-03-21T04:05:30.948Z,51.88
2023-03-21T04:08:11.550Z,53.28
2023-03-21T04:10:43.702Z,53.38
2023-03-21T04:13:11.205Z,45.55
2023-03-21T04:15:49.688Z,46.58
2023-03-21T04:18:16.925Z,48.83
2023-03-21T04:20:49.084Z,50.67
2023-03-21T04:23:17.820Z,50.20
2023-03-21T04:25:55.849Z,54.53
2023-03-21T04:28:30.050Z,52.40
2023-03-21T04:31:31.503Z,54.63
2023-03-21T04:34:12.581Z,65.90
2023-03-21T04:36:46.118Z,65.75
2023-03-21T04:39:14.226Z,67.60
2023-03-21T04:41:45.515Z,74.22
2023-03-21T04:44:13.974Z,69.72
2023-03-21T04:46:41.956Z,75.07
2023-03-21T04:49:10.788Z,68.55
2023-03-21T04:51:58.000Z,73.57
2023-03-21T04:54:58.974Z,69.03
2023-03-21T04:57:39.624Z,69.53
2023-03-21T05:00:27.975Z,70.10
2023-03-21T05:03:09.335Z,70.75
2023-03-21T05:05:49.009Z,69.28
2023-03-21T05:08:29.688Z,68.10
2023-03-21T05:10:57.160Z,67.03
2023-03-21T05:13:27.362Z,74.10
2023-03-21T05:15:54.365Z,66.63
2023-03-21T05:18:25.181Z,71.10
2023-03-21T05:21:12.478Z,65.80
2023-03-21T05:23:40.995Z,71.60
2023-03-21T05:26:09.962Z,71.32
2023-03-21T05:28:54.636Z,63.95
2023-03-21T05:31:22.362Z,64.32
2023-03-21T05:33:54.676Z,63.78
2023-03-21T05:36:21.839Z,64.00
2023-03-21T05:38:48.912Z,59.95
2023-03-21T05:41:19.197Z,65.50
2023-03-21T05:43:47.195Z,65.75
2023-03-21T05:46:16.330Z,61.85
2023-03-21T05:48:43.432Z,57.40
2023-03-21T05:51:35.988Z,61.50
2023-03-21T05:54:30.173Z,60.22
2023-03-21T05:57:25.995Z,63.95
2023-03-21T06:00:12.696Z,64.32
2023-03-21T06:02:42.708Z,71.38
2023-03-21T06:05:48.049Z,64.45
2023-03-21T06:11:37.511Z,56.53
2023-03-21T06:14:40.306Z,58.53
2023-03-21T06:17:33.863Z,58.92
2023-03-21T06:20:07.391Z,57.50
2023-03-21T06:22:40.839Z,60.80
2023-03-21T06:25:08.714Z,62.15
2023-03-21T06:27:36.910Z,60.30
2023-03-21T06:30:07.258Z,59.35
2023-03-21T06:33:00.032Z,59.00
2023-03-21T06:36:09.501Z,58.30
2023-03-21T06:38:49.637Z,57.85
2023-03-21T06:41:17.289Z,58.15
2023-03-21T06:43:52.963Z,55.28
2023-03-21T06:46:20.718Z,54.17
2023-03-21T06:48:48.677Z,55.97
2023-03-21T06:51:36.009Z,56.10
2023-03-21T06:54:42.092Z,53.88
2023-03-21T06:57:23.547Z,53.03
2023-03-21T06:59:51.259Z,52.42
2023-03-21T07:02:21.191Z,54.35
2023-03-21T07:05:11.122Z,51.03
2023-03-21T07:08:12.083Z,51.40
2023-03-21T07:11:13.069Z,48.40
2023-03-21T07:13:52.404Z,49.65
2023-03-21T07:16:21.750Z,49.80
2023-03-21T07:18:49.012Z,50.88
2023-03-21T07:21:16.366Z,50.85
2023-03-21T07:23:44.246Z,50.47
2023-03-21T07:26:11.389Z,48.67
2023-03-21T07:28:39.506Z,51.10
2023-03-21T07:31:07.716Z,52.40
2023-03-21T07:33:55.064Z,55.90
2023-03-21T07:36:37.013Z,58.33
2023-03-21T07:39:07.813Z,55.17
2023-03-21T07:41:35.043Z,57.65
2023-03-21T07:44:22.928Z,54.45
2023-03-21T07:46:54.716Z,54.22
2023-03-21T07:49:21.916Z,53.40
2023-03-21T07:52:21.754Z,59.38
2023-03-21T07:55:24.137Z,61.53
2023-03-21T07:58:05.567Z,59.03
2023-03-21T08:00:33.425Z,61.00
2023-03-21T08:03:01.192Z,60.47
2023-03-21T08:05:51.182Z,59.88
2023-03-21T08:08:55.075Z,58.78
2023-03-21T08:11:35.661Z,57.10
2023-03-21T08:14:02.777Z,59.42
2023-03-21T08:16:29.891Z,57.33
2023-03-21T08:18:56.956Z,55.60
2023-03-21T08:21:24.002Z,57.42
2023-03-21T08:23:51.493Z,60.63
2023-03-21T08:26:19.557Z,58.25
2023-03-21T08:28:46.611Z,56.00
2023-03-21T08:31:14.583Z,59.88
2023-03-21T08:34:03.077Z,57.47
2023-03-21T08:36:44.036Z,55.00
2023-03-21T08:39:11.315Z,55.53
2023-03-21T08:41:38.746Z,53.80
2023-03-21T08:44:26.129Z,56.90
2023-03-21T08:47:07.001Z,54.85
2023-03-21T08:49:36.212Z,55.47
2023-03-21T08:52:23.100Z,56.78
2023-03-21T08:55:25.168Z,54.97
2023-03-21T08:58:07.071Z,59.60
2023-03-21T09:00:34.227Z,59.00
2023-03-21T09:03:21.077Z,59.20
2023-03-21T09:06:24.108Z,58.08
2023-03-21T09:09:23.270Z,57.15
2023-03-21T09:11:52.446Z,58.50
2023-03-21T09:14:21.841Z,58.40
2023-03-21T09:16:51.044Z,58.47
2023-03-21T09:19:18.130Z,58.65
2023-03-21T09:22:05.157Z,62.67
2023-03-21T09:25:06.135Z,63.95
2023-03-21T09:27:46.745Z,59.15
2023-03-21T09:30:19.213Z,56.05
2023-03-21T09:32:50.684Z,59.17
2023-03-21T09:35:19.237Z,60.13
2023-03-21T09:37:48.343Z,62.38
2023-03-21T09:40:20.354Z,60.22
2023-03-21T09:43:56.125Z,60.30
2023-03-21T09:46:52.383Z,59.55
2023-03-21T09:49:42.150Z,62.28
2023-03-21T09:53:14.156Z,60.92
2023-03-21T09:56:17.129Z,61.45
2023-03-21T09:59:00.796Z,64.65
2023-03-21T10:01:42.058Z,58.78
2023-03-21T10:04:16.731Z,61.40
2023-03-21T10:07:12.154Z,62.03
2023-03-21T10:09:53.101Z,62.95
2023-03-21T10:12:22.699Z,56.33
2023-03-21T10:14:54.939Z,57.15
2023-03-21T10:17:50.359Z,60.00
2023-03-21T10:20:55.326Z,55.42
2023-03-21T10:23:50.178Z,56.95
2023-03-21T10:26:38.152Z,58.33
2023-03-21T10:29:09.484Z,59.42
2023-03-21T10:31:36.816Z,59.30
2023-03-21T10:34:19.090Z,58.20
2023-03-21T10:37:09.842Z,60.10
2023-03-21T10:40:10.417Z,58.25
2023-03-21T10:42:50.894Z,59.15
2023-03-21T10:45:20.261Z,58.35
2023-03-21T10:47:49.405Z,59.03
2023-03-21T10:50:36.140Z,59.15
2023-03-21T10:53:49.161Z,58.95
2023-03-21T10:57:05.033Z,60.25
2023-03-21T10:59:57.941Z,57.85
2023-03-21T11:02:37.265Z,60.00
2023-03-21T11:05:39.714Z,61.45
2023-03-21T11:08:41.182Z,60.47
2023-03-21T11:11:25.478Z,56.42
2023-03-21T11:14:01.580Z,56.25
2023-03-21T11:16:49.193Z,62.47
2023-03-21T11:19:32.649Z,55.90
2023-03-21T11:22:06.320Z,50.58
2023-03-21T11:24:35.580Z,56.00
2023-03-21T11:27:07.616Z,53.63
2023-03-21T11:29:41.626Z,59.45
2023-03-21T11:32:51.283Z,54.13
2023-03-21T11:35:38.342Z,55.28
2023-03-21T11:38:23.582Z,55.97
2023-03-21T11:40:59.197Z,55.03
2023-03-21T11:43:36.537Z,55.88
2023-03-21T11:46:13.089Z,54.00
2023-03-21T11:48:43.227Z,55.17
2023-03-21T11:51:40.646Z,50.88
2023-03-21T11:54:47.218Z,46.72
2023-03-21T11:57:49.229Z,45.53
2023-03-21T12:00:29.390Z,51.13
2023-03-21T12:03:05.912Z,50.08
2023-03-21T12:06:03.293Z,49.22
2023-03-21T12:09:05.716Z,42.10
2023-03-21T12:12:14.818Z,44.25
2023-03-21T12:15:19.232Z,42.47
2023-03-21T12:18:27.845Z,45.25
2023-03-21T12:21:41.255Z,47.47
2023-03-21T12:24:41.644Z,42.47
2023-03-21T12:27:46.230Z,43.85
2023-03-21T12:30:45.851Z,38.75
2023-03-21T12:33:19.126Z,49.15
2023-03-21T12:36:18.235Z,49.60
2023-03-21T12:39:40.225Z,49.53
2023-03-21T12:42:34.668Z,47.33
2023-03-21T12:45:26.067Z,47.25
2023-03-21T12:48:03.782Z,46.40
2023-03-21T12:50:54.260Z,48.05
2023-03-21T12:54:07.244Z,47.58
2023-03-21T12:57:00.104Z,44.40
2023-03-21T12:59:39.114Z,45.47
2023-03-21T13:02:22.954Z,41.63
2023-03-21T13:05:13.271Z,42.20
2023-03-21T13:08:03.654Z,42.30
2023-03-21T13:10:31.278Z,43.22
2023-03-21T13:13:45.214Z,45.00
2023-03-21T13:17:06.240Z,42.55
2023-03-21T13:20:11.047Z,42.15
2023-03-21T13:22:38.546Z,42.10
2023-03-21T13:25:16.405Z,44.53
2023-03-21T13:27:47.445Z,41.25
2023-03-21T13:30:14.502Z,39.53
2023-03-21T13:33:04.378Z,40.55
2023-03-21T13:35:53.621Z,39.75
2023-03-21T13:38:25.586Z,39.72
2023-03-21T13:41:01.125Z,41.88
2023-03-21T13:43:40.324Z,42.78
2023-03-21T13:46:10.576Z,40.42
2023-03-21T13:49:06.286Z,41.17
2023-03-21T13:52:12.275Z,40.58
2023-03-21T13:54:53.868Z,39.97
2023-03-21T13:57:41.541Z,42.25
2023-03-21T14:00:46.372Z,40.05
2023-03-21T14:03:48.267Z,39.25
2023-03-21T14:06:54.394Z,38.80
2023-03-21T14:09:43.923Z,42.33
2023-03-21T14:12:16.590Z,38.15
2023-03-21T14:14:51.407Z,39.08
2023-03-21T14:17:28.758Z,39.25
2023-03-21T14:20:18.382Z,38.63
2023-03-21T14:23:15.073Z,38.67
2023-03-21T14:25:47.613Z,39.65
2023-03-21T14:28:28.725Z,39.22
2023-03-21T14:31:00.281Z,36.20
2023-03-21T14:33:29.238Z,39.17
2023-03-21T14:36:03.666Z,38.20
2023-03-21T14:38:53.344Z,38.40
2023-03-21T14:41:43.189Z,38.90
2023-03-21T14:44:22.452Z,37.25
2023-03-21T14:46:49.860Z,36.78
2023-03-21T14:49:43.326Z,39.33
2023-03-21T14:52:47.449Z,36.75
2023-03-21T14:56:15.377Z,38.80
2023-03-21T14:59:09.620Z,36.60
2023-03-21T15:01:52.380Z,38.47
2023-03-21T15:04:21.999Z,35.78
2023-03-21T15:07:12.324Z,36.10
2023-03-21T15:10:30.352Z,36.77
2023-03-21T15:13:20.783Z,35.47
2023-03-21T15:15:48.633Z,35.35
2023-03-21T15:18:23.740Z,37.35
2023-03-21T15:21:20.541Z,34.85
2023-03-21T15:24:13.598Z,36.80
2023-03-21T15:26:43.916Z,35.38
2023-03-21T15:29:12.387Z,39.40
2023-03-21T15:31:41.143Z,38.33
2023-03-21T15:34:19.363Z,36.95
2023-03-21T15:36:49.093Z,36.17
2023-03-21T15:39:20.012Z,36.17
2023-03-21T15:42:22.632Z,38.17
2023-03-21T15:44:53.375Z,36.55
2023-03-21T15:47:50.140Z,37.55
2023-03-21T15:50:51.752Z,36.95
2023-03-21T15:53:33.911Z,38.15
2023-03-21T15:56:03.250Z,36.33
2023-03-21T15:58:52.426Z,38.33
2023-03-21T16:01:39.434Z,37.85
2023-03-21T16:04:40.423Z,39.92
2023-03-21T16:07:34.389Z,38.63
2023-03-21T16:10:50.412Z,41.28
2023-03-21T16:13:31.161Z,41.35
2023-03-21T16:15:58.127Z,43.10
2023-03-21T16:18:25.538Z,38.70
2023-03-21T16:21:12.349Z,41.08
2023-03-21T16:24:13.588Z,39.13
2023-03-21T16:26:55.239Z,38.95
2023-03-21T16:29:22.664Z,41.33
2023-03-21T16:31:49.962Z,40.63
2023-03-21T16:34:17.138Z,37.92
2023-03-21T16:37:04.415Z,37.25
2023-03-21T16:39:45.033Z,37.33
2023-03-21T16:42:13.186Z,38.45
2023-03-21T16:44:40.593Z,40.50
2023-03-21T16:47:19.228Z,40.10
2023-03-21T16:58:39.504Z,39.25
2023-03-21T17:10:25.644Z,41.75
2023-03-21T17:27:22.638Z,38.42
2023-03-21T17:35:46.021Z,37.20
2023-03-21T17:43:48.991Z,40.95
2023-03-21T18:01:48.751Z,44.05
2023-03-21T18:16:47.113Z,41.17
2023-03-21T18:50:14.482Z,47.97
2023-03-21T18:57:13.237Z,45.00
2023-03-21T19:10:17.588Z,46.55
2023-03-21T19:20:34.023Z,49.30
2023-03-21T19:27:32.476Z,46.42
2023-03-21T19:30:14.270Z,47.13
2023-03-21T19:32:42.221Z,48.45
2023-03-21T19:35:09.809Z,48.30
2023-03-21T19:37:37.721Z,48.00
2023-03-21T19:40:07.083Z,51.40
2023-03-21T19:42:54.437Z,48.20
2023-03-21T19:45:57.404Z,50.13
2023-03-21T19:48:38.653Z,50.40
2023-03-21T19:51:29.152Z,46.50
2023-03-21T19:54:09.937Z,49.60
2023-03-21T19:56:37.661Z,49.28
2023-03-21T19:59:05.017Z,52.20
2023-03-21T20:01:35.047Z,52.60
2023-03-21T20:04:02.589Z,52.20
2023-03-21T20:06:29.842Z,48.97
2023-03-21T20:11:45.902Z,50.67
2023-03-21T20:14:13.026Z,52.38
2023-03-21T20:16:43.193Z,50.50
2023-03-21T20:19:12.628Z,49.83
2023-03-21T20:22:02.619Z,53.88
2023-03-21T20:25:03.480Z,56.47
2023-03-21T20:27:44.909Z,50.53
2023-03-21T20:30:15.612Z,58.53
2023-03-21T20:32:45.820Z,56.95
2023-03-21T20:36:22.867Z,55.00
2023-03-21T20:38:35.673Z,54.67
2023-03-21T20:41:06.105Z,57.03
2023-03-21T20:44:28.247Z,60.55
2023-03-21T20:46:21.548Z,60.72
2023-03-21T20:48:49.864Z,63.05
2023-03-21T20:55:07.500Z,55.97
2023-03-21T20:57:49.007Z,59.90
2023-03-21T21:00:55.319Z,57.00
2023-03-21T21:03:23.012Z,58.35
2023-03-21T21:05:52.090Z,59.53
2023-03-21T21:08:23.359Z,56.92
2023-03-21T21:11:30.183Z,56.97
2023-03-21T21:13:39.280Z,57.28
2023-03-21T21:16:07.501Z,60.40
2023-03-21T21:18:40.868Z,57.58
2023-03-21T21:27:46.686Z,61.08
2023-03-21T21:33:29.971Z,58.80
2023-03-21T21:36:28.590Z,64.18
2023-03-21T21:39:27.920Z,60.90
2023-03-21T21:46:09.305Z,59.90
2023-03-21T21:48:36.532Z,58.50
2023-03-21T21:55:07.355Z,65.00
2023-03-21T21:58:26.959Z,64.57
2023-03-21T22:00:56.546Z,64.05
2023-03-21T22:04:46.487Z,62.00
2023-03-21T22:10:38.969Z,58.85
2023-03-21T22:13:07.393Z,62.97
2023-03-21T22:15:37.148Z,62.60
2023-03-21T22:18:06.699Z,61.03
2023-03-21T22:20:34.166Z,59.45
2023-03-21T22:23:27.584Z,61.95
2023-03-21T22:26:13.461Z,58.47
2023-03-21T22:28:43.568Z,61.97
2023-03-21T22:31:14.473Z,58.88
2023-03-21T22:33:42.859Z,63.75
2023-03-21T22:36:34.621Z,64.80
2023-03-21T22:39:18.163Z,60.20
2023-03-21T22:41:46.161Z,62.40
2023-03-21T22:44:14.868Z,64.45
2023-03-21T22:46:42.230Z,63.83
2023-03-21T22:49:09.588Z,65.32
2023-03-21T22:51:56.729Z,59.92
2023-03-21T22:54:38.137Z,59.78
2023-03-21T22:57:06.363Z,62.65
2023-03-21T22:59:33.601Z,60.83
2023-03-21T23:02:00.798Z,61.17
2023-03-21T23:04:28.202Z,63.30
2023-03-21T23:06:55.857Z,61.85
2023-03-21T23:09:23.099Z,62.30
2023-03-21T23:11:51.594Z,63.45
2023-03-21T23:14:22.923Z,63.88
2023-03-21T23:16:52.815Z,69.22
2023-03-21T23:19:21.554Z,65.85
2023-03-21T23:21:48.864Z,68.82
2023-03-21T23:24:16.106Z,65.78
2023-03-21T23:26:43.380Z,65.40
2023-03-21T23:29:11.192Z,66.38
2023-03-21T23:31:39.620Z,65.15
2023-03-21T23:34:07.050Z,65.03
2023-03-21T23:36:54.601Z,62.28
2023-03-21T23:39:59.722Z,64.53
2023-03-21T23:42:40.208Z,60.83
2023-03-21T23:45:07.743Z,60.10
2023-03-21T23:47:35.082Z,59.65
2023-03-21T23:50:02.552Z,67.10
2023-03-21T23:53:03.622Z,64.97
2023-03-21T23:55:44.877Z,67.68
2023-03-21T23:58:12.660Z,69.18
